createdAt,value
2019-04-10T00:01:38.265Z,6.06
2019-04-10T00:04:07.667Z,6.00
2019-04-10T00:06:37.582Z,5.86
2019-04-10T00:09:08.225Z,5.90
2019-04-10T00:11:37.884Z,5.80
2019-04-10T00:14:08.282Z,5.79
2019-04-10T00:16:38.321Z,5.73
2019-04-10T00:19:08.711Z,5.73
2019-04-10T00:21:38.377Z,5.69
2019-04-10T00:24:08.029Z,5.76
2019-04-10T00:26:39.523Z,5.67
2019-04-10T00:29:08.910Z,5.62
2019-04-10T00:31:38.238Z,5.65
2019-04-10T00:34:07.604Z,5.58
2019-04-10T00:36:39.409Z,5.59
2019-04-10T00:39:10.616Z,5.58
2019-04-10T00:41:40.684Z,5.51
2019-04-10T00:44:11.164Z,5.48
2019-04-10T00:46:40.931Z,5.51
2019-04-10T00:49:10.341Z,5.51
2019-04-10T00:51:39.686Z,5.45
2019-04-10T00:54:09.835Z,5.42
2019-04-10T00:56:39.266Z,5.37
2019-04-10T00:59:08.894Z,5.33
2019-04-10T01:01:38.791Z,5.33
2019-04-10T01:04:08.085Z,5.23
2019-04-10T01:06:37.857Z,5.21
2019-04-10T01:09:09.082Z,5.14
2019-04-10T01:11:39.237Z,5.09
2019-04-10T01:14:09.554Z,5.05
2019-04-10T01:16:39.774Z,4.96
2019-04-10T01:19:09.979Z,4.94
2019-04-10T01:21:39.340Z,4.91
2019-04-10T01:24:09.053Z,4.90
2019-04-10T01:26:39.124Z,4.84
2019-04-10T01:29:09.270Z,4.81
2019-04-10T01:31:39.404Z,4.75
2019-04-10T01:34:09.427Z,4.73
2019-04-10T01:36:39.481Z,4.65
2019-04-10T01:39:10.565Z,4.61
2019-04-10T01:41:39.908Z,4.61
2019-04-10T01:44:09.165Z,4.60
2019-04-10T01:46:38.721Z,4.61
2019-04-10T01:49:09.306Z,4.55
2019-04-10T01:51:39.350Z,4.54
2019-04-10T01:54:09.035Z,4.55
2019-04-10T01:56:39.635Z,4.52
2019-04-10T01:59:09.746Z,4.44
2019-04-10T02:01:58.990Z,4.44
2019-04-10T02:04:28.941Z,4.39
2019-04-10T02:06:58.267Z,4.40
2019-04-10T02:09:27.655Z,4.30
2019-04-10T02:11:57.021Z,4.30
2019-04-10T02:14:26.337Z,4.28
2019-04-10T02:16:55.656Z,4.23
2019-04-10T02:19:25.981Z,4.22
2019-04-10T02:21:56.100Z,4.18
2019-04-10T02:24:25.486Z,4.13
2019-04-10T02:26:56.021Z,4.15
2019-04-10T02:29:25.938Z,4.15
2019-04-10T02:31:57.155Z,4.10
2019-04-10T02:34:26.584Z,4.08
2019-04-10T02:36:55.959Z,4.01
2019-04-10T02:39:32.005Z,3.99
2019-04-10T02:41:56.428Z,3.98
2019-04-10T02:44:28.282Z,3.98
2019-04-10T02:46:59.435Z,4.01
2019-04-10T02:49:28.253Z,4.00
2019-04-10T02:51:58.888Z,3.90
2019-04-10T02:54:29.052Z,3.87
2019-04-10T02:56:58.648Z,3.80
2019-04-10T02:59:29.176Z,3.78
2019-04-10T03:02:00.336Z,3.66
2019-04-10T03:04:31.065Z,3.68
2019-04-10T03:07:02.176Z,3.62
2019-04-10T03:09:49.533Z,3.69
2019-04-10T03:12:03.763Z,3.63
2019-04-10T03:14:34.598Z,3.52
2019-04-10T03:17:03.998Z,3.49
2019-04-10T03:19:33.761Z,3.48
2019-04-10T03:22:04.180Z,3.47
2019-04-10T03:24:33.467Z,3.37
2019-04-10T03:27:03.697Z,3.35
2019-04-10T03:29:33.191Z,3.34
2019-04-10T03:32:22.764Z,3.25
2019-04-10T03:34:54.826Z,3.28
2019-04-10T03:37:28.528Z,3.24
2019-04-10T03:39:57.933Z,3.18
2019-04-10T03:42:27.252Z,3.10
2019-04-10T03:44:56.964Z,2.99
2019-04-10T03:47:27.190Z,2.98
2019-04-10T03:49:56.578Z,2.98
2019-04-10T03:52:25.832Z,2.91
2019-04-10T03:54:55.201Z,2.80
2019-04-10T03:57:24.682Z,2.77
2019-04-10T03:59:54.021Z,2.69
2019-04-10T04:02:24.001Z,2.72
2019-04-10T04:04:53.795Z,2.70
2019-04-10T04:07:25.981Z,2.65
2019-04-10T04:09:54.260Z,2.63
2019-04-10T04:12:23.542Z,2.52
2019-04-10T04:14:52.899Z,2.51
2019-04-10T04:17:22.269Z,2.48
2019-04-10T04:19:52.587Z,2.43
2019-04-10T04:22:22.968Z,2.44
2019-04-10T04:24:52.454Z,2.45
2019-04-10T04:27:21.877Z,2.40
2019-04-10T04:29:52.240Z,2.39
2019-04-10T04:32:21.830Z,2.34
2019-04-10T04:34:52.155Z,2.32
2019-04-10T04:37:23.215Z,2.25
2019-04-10T04:39:52.509Z,2.16
2019-04-10T04:42:22.362Z,2.22
2019-04-10T04:44:52.116Z,2.16
2019-04-10T04:47:22.307Z,2.16
2019-04-10T04:49:52.333Z,2.12
2019-04-10T04:52:21.918Z,2.07
2019-04-10T04:54:51.189Z,2.12
2019-04-10T04:57:20.541Z,2.09
2019-04-10T04:59:50.478Z,2.10
2019-04-10T05:02:20.019Z,2.11
2019-04-10T05:04:51.412Z,2.06
2019-04-10T05:07:20.993Z,2.04
2019-04-10T05:09:50.507Z,2.06
2019-04-10T05:12:20.310Z,2.06
2019-04-10T05:14:49.668Z,2.02
2019-04-10T05:17:19.993Z,2.09
2019-04-10T05:19:50.289Z,2.13
2019-04-10T05:22:19.676Z,2.14
2019-04-10T05:24:48.969Z,2.22
2019-04-10T05:27:18.440Z,2.23
2019-04-10T05:29:47.715Z,2.25
2019-04-10T05:32:17.853Z,2.31
2019-04-10T05:34:47.309Z,2.38
2019-04-10T05:37:16.801Z,2.45
2019-04-10T05:39:50.619Z,2.43
2019-04-10T05:42:17.257Z,2.61
2019-04-10T05:44:46.527Z,2.82
2019-04-10T05:47:15.827Z,3.12
2019-04-10T05:49:45.287Z,3.28
2019-04-10T05:52:14.786Z,3.82
2019-04-10T05:54:44.160Z,3.82
2019-04-10T05:57:13.462Z,3.97
2019-04-10T05:59:43.865Z,4.22
2019-04-10T06:02:13.862Z,5.15
2019-04-10T06:04:43.336Z,5.26
2019-04-10T06:07:14.947Z,5.95
2019-04-10T06:09:54.097Z,6.38
2019-04-10T06:12:16.085Z,6.96
2019-04-10T06:14:46.308Z,6.78
2019-04-10T06:17:16.421Z,7.62
2019-04-10T06:19:46.773Z,6.80
2019-04-10T06:22:16.711Z,6.55
2019-04-10T06:24:46.773Z,5.74
2019-04-10T06:27:16.457Z,5.46
2019-04-10T06:29:51.663Z,4.72
2019-04-10T06:32:22.677Z,4.43
2019-04-10T06:34:52.034Z,4.40
2019-04-10T06:37:21.986Z,4.38
2019-04-10T06:39:51.455Z,4.43
2019-04-10T06:42:20.884Z,4.61
2019-04-10T06:44:50.293Z,4.83
2019-04-10T06:47:20.282Z,4.79
2019-04-10T06:49:50.737Z,5.01
2019-04-10T06:52:20.668Z,5.31
2019-04-10T06:54:51.038Z,5.50
2019-04-10T06:57:20.832Z,5.28
2019-04-10T06:59:50.485Z,5.50
2019-04-10T07:02:27.100Z,5.83
2019-04-10T07:04:54.888Z,5.90
2019-04-10T07:07:25.245Z,6.44
2019-04-10T07:09:55.158Z,6.79
2019-04-10T07:12:30.076Z,6.55
2019-04-10T07:14:58.279Z,6.21
2019-04-10T07:17:29.145Z,6.21
2019-04-10T07:19:59.677Z,6.18
2019-04-10T07:22:31.101Z,6.06
2019-04-10T07:25:00.761Z,5.66
2019-04-10T07:27:33.612Z,6.19
2019-04-10T07:30:01.714Z,6.09
2019-04-10T07:32:32.293Z,6.19
2019-04-10T07:35:02.939Z,6.27
2019-04-10T07:37:33.969Z,6.24
2019-04-10T07:40:05.952Z,6.34
2019-04-10T07:42:39.838Z,6.34
2019-04-10T07:45:07.669Z,6.16
2019-04-10T07:47:37.986Z,6.21
2019-04-10T07:50:10.290Z,6.23
2019-04-10T07:52:39.687Z,6.44
2019-04-10T07:55:09.043Z,7.07
2019-04-10T07:57:38.636Z,7.36
2019-04-10T08:00:11.095Z,7.53
2019-04-10T08:02:42.808Z,7.71
2019-04-10T08:05:13.935Z,7.57
2019-04-10T08:07:43.378Z,7.72
2019-04-10T08:10:12.965Z,7.30
2019-04-10T08:12:47.770Z,7.53
2019-04-10T08:15:13.438Z,8.20
2019-04-10T08:17:42.793Z,7.48
2019-04-10T08:20:14.180Z,7.94
2019-04-10T08:22:43.482Z,8.49
2019-04-10T08:25:14.294Z,8.32
2019-04-10T08:27:43.841Z,7.97
2019-04-10T08:30:13.364Z,8.00
2019-04-10T08:32:53.305Z,8.34
2019-04-10T08:35:15.361Z,8.41
2019-04-10T08:37:46.108Z,8.57
2019-04-10T08:40:15.788Z,8.70
2019-04-10T08:42:46.646Z,9.36
2019-04-10T08:45:16.898Z,10.04
2019-04-10T08:47:46.195Z,11.16
2019-04-10T08:50:15.540Z,11.04
2019-04-10T08:52:44.907Z,10.85
2019-04-10T08:55:14.267Z,9.82
2019-04-10T08:57:45.820Z,9.82
2019-04-10T09:00:16.497Z,9.77
2019-04-10T09:02:46.471Z,9.86
2019-04-10T09:05:15.780Z,10.04
2019-04-10T09:07:46.398Z,10.77
2019-04-10T09:10:16.445Z,11.20
2019-04-10T09:12:45.855Z,11.85
2019-04-10T09:15:16.036Z,12.53
2019-04-10T09:17:47.257Z,13.51
2019-04-10T09:20:16.662Z,14.82
2019-04-10T09:23:10.310Z,15.37
2019-04-10T09:25:17.876Z,15.36
2019-04-10T09:27:47.616Z,15.69
2019-04-10T09:30:16.987Z,14.71
2019-04-10T09:32:46.602Z,15.72
2019-04-10T09:35:16.465Z,15.32
2019-04-10T09:37:46.306Z,15.73
2019-04-10T09:40:16.358Z,15.15
2019-04-10T09:42:46.020Z,15.26
2019-04-10T09:45:15.760Z,16.02
2019-04-10T09:47:45.840Z,16.61
2019-04-10T09:50:15.473Z,15.58
2019-04-10T09:52:46.134Z,15.60
2019-04-10T09:55:16.008Z,16.52
2019-04-10T09:57:45.445Z,16.78
2019-04-10T10:00:15.229Z,17.18
2019-04-10T10:02:45.691Z,17.28
2019-04-10T10:05:15.200Z,16.11
2019-04-10T10:07:45.211Z,16.40
2019-04-10T10:10:15.052Z,16.44
2019-04-10T10:12:45.052Z,17.13
2019-04-10T10:15:14.650Z,16.04
2019-04-10T10:17:44.555Z,17.32
2019-04-10T10:20:15.370Z,16.48
2019-04-10T10:22:45.362Z,17.54
2019-04-10T10:25:15.725Z,18.01
2019-04-10T10:27:45.057Z,17.94
2019-04-10T10:30:15.566Z,17.98
2019-04-10T10:32:45.568Z,18.14
2019-04-10T10:35:16.780Z,17.52
2019-04-10T10:37:48.469Z,18.08
2019-04-10T10:40:19.204Z,17.45
2019-04-10T10:42:50.327Z,18.41
2019-04-10T10:45:20.852Z,18.54
2019-04-10T10:47:50.619Z,18.33
2019-04-10T10:50:22.092Z,18.80
2019-04-10T10:52:52.117Z,18.77
2019-04-10T10:55:21.557Z,18.10
2019-04-10T10:57:51.261Z,18.84
2019-04-10T11:00:21.632Z,18.07
2019-04-10T11:02:51.900Z,19.22
2019-04-10T11:05:21.379Z,18.94
2019-04-10T11:07:51.529Z,18.55
2019-04-10T11:10:24.450Z,19.23
2019-04-10T11:12:53.548Z,20.31
2019-04-10T11:15:23.895Z,20.15
2019-04-10T11:17:53.849Z,18.89
2019-04-10T11:20:24.107Z,18.96
2019-04-10T11:22:53.783Z,19.44
2019-04-10T11:25:23.794Z,19.27
2019-04-10T11:27:53.950Z,19.56
2019-04-10T11:30:24.884Z,19.02
2019-04-10T11:32:54.922Z,19.08
2019-04-10T11:35:24.384Z,19.13
2019-04-10T11:40:27.867Z,19.14
2019-04-10T11:42:58.094Z,18.78
2019-04-10T11:45:37.971Z,18.78
2019-04-10T11:48:02.287Z,19.02
2019-04-10T11:50:32.663Z,18.05
2019-04-10T11:53:04.398Z,19.91
2019-04-10T11:58:05.567Z,17.97
2019-04-10T12:05:47.971Z,18.49
2019-04-10T12:13:19.741Z,17.96
2019-04-10T12:15:50.382Z,18.19
2019-04-10T12:18:20.055Z,18.52
2019-04-10T12:20:49.461Z,18.71
2019-04-10T12:23:19.103Z,18.60
2019-04-10T12:25:49.385Z,18.25
2019-04-10T12:28:20.125Z,18.30
2019-04-10T12:30:49.424Z,18.85
2019-04-10T12:33:19.137Z,19.11
2019-04-10T12:35:48.564Z,17.65
2019-04-10T12:38:19.309Z,17.91
2019-04-10T12:40:49.419Z,17.50
2019-04-10T12:43:18.821Z,17.67
2019-04-10T12:45:48.607Z,17.60
2019-04-10T12:48:19.264Z,17.28
2019-04-10T12:50:49.517Z,17.62
2019-04-10T12:53:19.169Z,18.29
2019-04-10T12:55:49.413Z,18.42
2019-04-10T12:58:19.307Z,17.79
2019-04-10T13:00:52.049Z,18.68
2019-04-10T13:03:21.437Z,17.88
2019-04-10T13:05:51.537Z,18.46
2019-04-10T13:08:28.811Z,18.44
2019-04-10T13:10:54.017Z,18.72
2019-04-10T13:13:24.255Z,18.21
2019-04-10T13:15:54.146Z,18.01
2019-04-10T13:18:24.454Z,18.52
2019-04-10T13:20:54.078Z,19.03
2019-04-10T13:23:24.547Z,18.34
2019-04-10T13:25:59.172Z,19.14
2019-04-10T13:28:25.545Z,18.16
2019-04-10T13:30:56.425Z,18.60
2019-04-10T13:33:26.727Z,19.03
2019-04-10T13:35:56.173Z,18.82
2019-04-10T13:38:30.917Z,18.92
2019-04-10T13:40:56.708Z,18.34
2019-04-10T13:43:26.127Z,19.28
2019-04-10T13:45:56.280Z,19.18
2019-04-10T13:48:25.677Z,19.80
2019-04-10T13:50:54.992Z,19.35
2019-04-10T13:53:24.270Z,19.18
2019-04-10T13:55:54.700Z,18.68
2019-04-10T13:58:26.509Z,18.39
2019-04-10T14:00:55.391Z,17.27
2019-04-10T14:03:25.938Z,17.79
2019-04-10T14:05:55.527Z,18.08
2019-04-10T14:08:36.795Z,17.99
2019-04-10T14:10:57.229Z,17.65
2019-04-10T14:13:27.579Z,18.33
2019-04-10T14:15:58.000Z,18.26
2019-04-10T14:18:28.527Z,18.92
2019-04-10T14:20:57.814Z,17.48
2019-04-10T14:23:28.716Z,18.03
2019-04-10T14:26:00.625Z,18.43
2019-04-10T14:28:31.633Z,18.75
2019-04-10T14:31:02.733Z,18.49
2019-04-10T14:33:33.554Z,18.03
2019-04-10T14:36:03.425Z,18.86
2019-04-10T14:38:33.060Z,18.11
2019-04-10T14:41:03.290Z,18.16
2019-04-10T14:43:33.136Z,17.26
2019-04-10T14:46:02.817Z,17.38
2019-04-10T14:48:32.405Z,17.03
2019-04-10T14:51:01.890Z,17.56
2019-04-10T14:53:33.131Z,17.43
2019-04-10T14:56:02.533Z,16.91
2019-04-10T14:58:32.884Z,16.66
2019-04-10T15:01:06.929Z,17.39
2019-04-10T15:03:34.644Z,17.70
2019-04-10T15:06:05.000Z,17.05
2019-04-10T15:08:35.629Z,16.52
2019-04-10T15:11:05.071Z,15.29
2019-04-10T15:13:36.024Z,15.87
2019-04-10T15:16:07.054Z,16.65
2019-04-10T15:18:37.174Z,16.45
2019-04-10T15:21:07.006Z,16.22
2019-04-10T15:23:36.612Z,15.31
2019-04-10T15:26:06.066Z,16.16
2019-04-10T15:28:36.446Z,16.24
2019-04-10T15:31:06.712Z,16.22
2019-04-10T15:33:37.085Z,16.60
2019-04-10T15:36:09.367Z,16.20
2019-04-10T15:38:39.736Z,16.10
2019-04-10T15:41:09.244Z,15.04
2019-04-10T15:43:39.947Z,15.99
2019-04-10T15:46:09.425Z,16.63
2019-04-10T15:48:38.747Z,15.45
2019-04-10T15:51:08.149Z,16.13
2019-04-10T15:53:37.641Z,15.53
2019-04-10T15:56:08.103Z,15.13
2019-04-10T15:58:37.489Z,15.30
2019-04-10T16:01:08.479Z,15.89
2019-04-10T16:03:38.696Z,14.93
2019-04-10T16:06:08.267Z,15.22
2019-04-10T16:08:38.613Z,14.54
2019-04-10T16:11:21.970Z,14.72
2019-04-10T16:13:53.132Z,14.02
2019-04-10T16:16:36.933Z,14.46
2019-04-10T16:19:24.626Z,14.28
2019-04-10T16:21:56.338Z,14.88
2019-04-10T16:24:27.026Z,14.39
2019-04-10T16:26:56.547Z,14.34
2019-04-10T16:29:26.740Z,14.16
2019-04-10T16:31:56.607Z,14.44
2019-04-10T16:34:26.872Z,14.25
2019-04-10T16:36:57.727Z,14.02
2019-04-10T16:39:27.896Z,13.73
2019-04-10T16:41:57.934Z,14.35
2019-04-10T16:44:27.492Z,14.41
2019-04-10T16:46:57.439Z,14.05
2019-04-10T16:49:26.856Z,14.10
2019-04-10T16:51:59.010Z,12.99
2019-04-10T16:54:29.227Z,12.68
2019-04-10T16:57:00.377Z,11.76
2019-04-10T16:59:30.048Z,11.40
2019-04-10T17:02:01.793Z,11.06
2019-04-10T17:04:31.923Z,10.91
2019-04-10T17:07:01.301Z,10.64
2019-04-10T17:09:30.888Z,10.63
2019-04-10T17:12:01.078Z,10.62
2019-04-10T17:14:31.410Z,10.44
2019-04-10T17:17:02.039Z,10.17
2019-04-10T17:19:45.611Z,10.22
2019-04-10T17:22:04.767Z,10.09
2019-04-10T17:24:34.140Z,10.03
2019-04-10T17:27:05.021Z,9.93
2019-04-10T17:29:34.866Z,9.75
2019-04-10T17:32:04.767Z,9.77
2019-04-10T17:34:34.743Z,9.61
2019-04-10T17:37:05.430Z,9.45
2019-04-10T17:39:35.584Z,9.47
2019-04-10T17:42:06.171Z,9.31
2019-04-10T17:44:35.974Z,9.20
2019-04-10T17:47:09.459Z,9.09
2019-04-10T17:49:39.033Z,8.93
2019-04-10T17:52:10.304Z,8.76
2019-04-10T17:54:41.184Z,8.73
2019-04-10T17:57:10.777Z,8.58
2019-04-10T17:59:40.733Z,8.48
2019-04-10T18:02:11.995Z,8.46
2019-04-10T18:04:42.171Z,8.42
2019-04-10T18:07:12.141Z,8.43
2019-04-10T18:09:41.753Z,8.36
2019-04-10T18:12:12.139Z,8.30
2019-04-10T18:14:44.034Z,8.15
2019-04-10T18:17:14.503Z,8.03
2019-04-10T18:19:44.151Z,7.93
2019-04-10T18:22:14.293Z,7.87
2019-04-10T18:24:43.919Z,7.82
2019-04-10T18:27:14.279Z,7.81
2019-04-10T18:29:43.757Z,7.70
2019-04-10T18:32:13.846Z,7.59
2019-04-10T18:34:44.451Z,7.46
2019-04-10T18:37:16.580Z,7.46
2019-04-10T18:39:44.978Z,7.41
2019-04-10T18:42:14.296Z,7.37
2019-04-10T18:44:44.672Z,7.27
2019-04-10T18:47:14.275Z,7.18
2019-04-10T18:49:43.764Z,7.08
2019-04-10T18:52:13.025Z,7.05
2019-04-10T18:54:43.522Z,7.03
2019-04-10T18:57:13.663Z,6.93
2019-04-10T18:59:44.932Z,6.87
2019-04-10T19:02:32.853Z,6.82
2019-04-10T19:05:04.143Z,6.77
2019-04-10T19:07:34.680Z,6.66
2019-04-10T19:10:04.283Z,6.61
2019-04-10T19:12:34.752Z,6.56
2019-04-10T19:15:06.560Z,6.52
2019-04-10T19:17:37.196Z,6.44
2019-04-10T19:20:07.688Z,6.22
2019-04-10T19:22:38.126Z,6.12
2019-04-10T19:25:08.268Z,6.03
2019-04-10T19:27:38.050Z,5.91
2019-04-10T19:30:10.969Z,5.91
2019-04-10T19:32:41.492Z,5.84
2019-04-10T19:35:11.105Z,5.75
2019-04-10T19:37:40.864Z,5.64
2019-04-10T19:40:11.301Z,5.62
2019-04-10T19:42:41.789Z,5.47
2019-04-10T19:45:12.056Z,5.42
2019-04-10T19:47:42.254Z,5.31
2019-04-10T19:50:12.971Z,5.28
2019-04-10T19:52:42.482Z,5.12
2019-04-10T19:55:12.097Z,5.10
2019-04-10T19:57:41.648Z,5.11
2019-04-10T20:00:12.530Z,5.11
2019-04-10T20:02:42.054Z,5.03
2019-04-10T20:05:11.744Z,4.95
2019-04-10T20:07:43.041Z,4.93
2019-04-10T20:10:13.151Z,4.94
2019-04-10T20:12:42.678Z,4.91
2019-04-10T20:15:12.219Z,4.81
2019-04-10T20:17:41.719Z,4.88
2019-04-10T20:20:11.515Z,4.80
2019-04-10T20:22:41.845Z,4.78
2019-04-10T20:25:12.392Z,4.68
2019-04-10T20:27:42.489Z,4.68
2019-04-10T20:30:12.417Z,4.60
2019-04-10T20:32:42.030Z,4.55
2019-04-10T20:35:11.908Z,4.50
2019-04-10T20:37:41.454Z,4.51
2019-04-10T20:40:11.889Z,4.51
2019-04-10T20:42:42.499Z,4.38
2019-04-10T20:45:12.129Z,4.30
2019-04-10T20:47:41.610Z,4.30
2019-04-10T20:50:12.006Z,4.36
2019-04-10T20:52:41.444Z,4.36
2019-04-10T20:55:11.297Z,4.37
2019-04-10T20:57:40.766Z,4.30
2019-04-10T21:00:13.696Z,4.21
2019-04-10T21:02:43.044Z,4.18
2019-04-10T21:05:14.848Z,4.08
2019-04-10T21:07:45.970Z,4.11
2019-04-10T21:10:15.455Z,4.04
2019-04-10T21:12:44.706Z,4.08
2019-04-10T21:15:14.197Z,4.03
2019-04-10T21:17:43.855Z,3.95
2019-04-10T21:20:13.690Z,3.88
2019-04-10T21:22:43.137Z,3.87
2019-04-10T21:25:12.653Z,3.85
2019-04-10T21:27:42.005Z,3.83
2019-04-10T21:30:15.990Z,3.83
2019-04-10T21:33:03.867Z,3.72
2019-04-10T21:35:37.130Z,3.73
2019-04-10T21:38:06.883Z,3.71
2019-04-10T21:40:36.244Z,3.67
2019-04-10T21:43:06.050Z,3.67
2019-04-10T21:45:35.556Z,3.66
2019-04-10T21:48:04.854Z,3.65
2019-04-10T21:50:35.525Z,3.70
2019-04-10T21:53:06.136Z,3.73
2019-04-10T21:55:35.589Z,3.69
2019-04-10T21:58:05.966Z,3.73
2019-04-10T22:00:53.231Z,3.69
2019-04-10T22:03:23.251Z,3.68
2019-04-10T22:06:11.304Z,3.63
2019-04-10T22:08:48.302Z,3.55
2019-04-10T22:11:19.035Z,3.51
2019-04-10T22:13:50.614Z,3.51
2019-04-10T22:16:22.047Z,3.52
2019-04-10T22:18:51.973Z,3.49
2019-04-10T22:21:22.770Z,3.42
2019-04-10T22:23:53.143Z,3.36
2019-04-10T22:26:22.459Z,3.38
2019-04-10T22:28:52.779Z,3.37
2019-04-10T22:31:22.131Z,3.42
2019-04-10T22:33:52.364Z,3.35
2019-04-10T22:36:22.826Z,3.28
2019-04-10T22:38:52.327Z,3.24
2019-04-10T22:41:28.640Z,3.18
2019-04-10T22:43:53.063Z,3.20
2019-04-10T22:46:22.413Z,3.07
2019-04-10T22:48:51.729Z,3.14
2019-04-10T22:51:21.405Z,3.08
2019-04-10T22:53:51.226Z,3.05
2019-04-10T22:56:20.978Z,3.00
2019-04-10T22:58:51.138Z,2.95
2019-04-10T23:01:20.771Z,2.93
2019-04-10T23:03:51.311Z,2.92
2019-04-10T23:06:20.854Z,2.93
2019-04-10T23:08:50.249Z,2.90
2019-04-10T23:11:30.434Z,2.83
2019-04-10T23:13:51.121Z,2.79
2019-04-10T23:16:20.459Z,2.82
2019-04-10T23:18:49.838Z,2.80
2019-04-10T23:21:20.658Z,2.71
2019-04-10T23:23:50.087Z,2.67
2019-04-10T23:26:20.731Z,2.68
2019-04-10T23:28:51.726Z,2.69
2019-04-10T23:31:21.586Z,2.74
2019-04-10T23:33:50.997Z,2.69
2019-04-10T23:36:20.309Z,2.70
2019-04-10T23:38:50.631Z,2.67
2019-04-10T23:41:21.128Z,2.63
2019-04-10T23:43:51.534Z,2.61
2019-04-10T23:46:22.145Z,2.59
2019-04-10T23:48:51.567Z,2.54
2019-04-10T23:51:21.159Z,2.56
2019-04-10T23:53:50.975Z,2.45
2019-04-10T23:56:21.629Z,2.45
2019-04-10T23:58:52.708Z,2.43
